Time;durP1;ratioP1;P1;durP2;ratioP2;P2;SDS_P1;SDS_P2;PMS_P1;PMS_P2;Temp;Humidity;BMP_temperature;BMP_pressure;BME280_temperature;BME280_humidity;BME280_pressure;Samples;Min_cycle;Max_cycle;Signal;HPM_P1;HPM_P2
2024/01/16 00:00:12;;;;;;;0.15;0.15;;;;;;;;;;5095090;28;20415;-72
2024/01/16 00:02:37;;;;;;;0.10;0.10;;;;;;;;;;5093308;28;20020;-72
2024/01/16 00:05:03;;;;;;;0.10;0.10;;;;;;;;;;5094886;28;20050;-71
2024/01/16 00:07:29;;;;;;;0.10;0.10;;;;;;;;;;5095403;28;20391;-73
2024/01/16 00:09:54;;;;;;;0.20;0.20;;;;;;;;;;5095083;28;20008;-73
2024/01/16 00:12:20;;;;;;;0.20;0.20;;;;;;;;;;5094735;28;20028;-75
2024/01/16 00:14:46;;;;;;;0.10;0.10;;;;;;;;;;5094931;28;20028;-73
2024/01/16 00:17:12;;;;;;;0.20;0.20;;;;;;;;;;5094892;28;20091;-74
2024/01/16 00:19:37;;;;;;;0.10;0.10;;;;;;;;;;5094251;28;20104;-74
2024/01/16 00:22:04;;;;;;;0.10;0.10;;;;;;;;;;5095317;28;20111;-74
2024/01/16 00:24:30;;;;;;;0.20;0.20;;;;;;;;;;5094415;28;20138;-74
2024/01/16 00:26:56;;;;;;;0.10;0.10;;;;;;;;;;5094425;28;20063;-74
2024/01/16 00:29:21;;;;;;;0.10;0.10;;;;;;;;;;5095001;28;20023;-73
2024/01/16 00:31:47;;;;;;;0.20;0.20;;;;;;;;;;5092671;28;20027;-73
2024/01/16 00:34:13;;;;;;;0.10;0.10;;;;;;;;;;5094080;28;20028;-74
2024/01/16 00:36:38;;;;;;;0.10;0.10;;;;;;;;;;5094239;28;20162;-74
2024/01/16 00:39:04;;;;;;;0.10;0.10;;;;;;;;;;5094543;28;20008;-74
2024/01/16 00:41:29;;;;;;;0.30;0.30;;;;;;;;;;5093678;28;20023;-73
2024/01/16 00:43:55;;;;;;;0.45;0.45;;;;;;;;;;5092837;28;20024;-74
2024/01/16 00:46:20;;;;;;;0.10;0.10;;;;;;;;;;5093892;28;20039;-74
2024/01/16 00:48:46;;;;;;;0.20;0.20;;;;;;;;;;5094420;28;20051;-73
2024/01/16 00:51:12;;;;;;;0.20;0.20;;;;;;;;;;5093959;28;20119;-73
2024/01/16 00:53:41;;;;;;;0.63;0.63;;;;;;;;;;5093521;28;20054;-73
2024/01/16 00:56:07;;;;;;;0.20;0.20;;;;;;;;;;5094006;28;20077;-73
2024/01/16 00:58:32;;;;;;;0.20;0.20;;;;;;;;;;5094071;28;20020;-73
2024/01/16 01:00:58;;;;;;;0.10;0.10;;;;;;;;;;5093663;28;20020;-74
2024/01/16 01:03:23;;;;;;;0.22;0.22;;;;;;;;;;5094571;28;20335;-75
2024/01/16 01:05:49;;;;;;;0.20;0.20;;;;;;;;;;5093978;28;20060;-75
2024/01/16 01:08:15;;;;;;;0.10;0.10;;;;;;;;;;5092800;28;20534;-73
2024/01/16 01:10:40;;;;;;;0.10;0.10;;;;;;;;;;5093665;28;20031;-74
2024/01/16 01:13:06;;;;;;;0.20;0.20;;;;;;;;;;5092435;28;20116;-74
2024/01/16 01:15:31;;;;;;;0.15;0.15;;;;;;;;;;5093507;28;20040;-72
2024/01/16 01:17:57;;;;;;;1.23;1.23;;;;;;;;;;5093833;28;20016;-72
2024/01/16 01:20:22;;;;;;;0.10;0.10;;;;;;;;;;5093891;28;20525;-73
2024/01/16 01:22:48;;;;;;;1.10;0.73;;;;;;;;;;5075709;28;20023;-72
2024/01/16 01:25:14;;;;;;;0.10;0.10;;;;;;;;;;5093476;28;20099;-73
2024/01/16 01:27:39;;;;;;;0.10;0.10;;;;;;;;;;5075699;28;20031;-74
2024/01/16 01:30:06;;;;;;;1.90;1.73;;;;;;;;;;5093494;28;20024;-74
2024/01/16 01:32:32;;;;;;;0.10;0.10;;;;;;;;;;5093718;28;20020;-74
2024/01/16 01:34:58;;;;;;;0.30;0.30;;;;;;;;;;5093996;28;20443;-73
2024/01/16 01:37:23;;;;;;;0.17;0.17;;;;;;;;;;5092333;28;20036;-74
2024/01/16 01:39:49;;;;;;;0.20;0.20;;;;;;;;;;5092642;28;20020;-72
2024/01/16 01:42:15;;;;;;;0.20;0.20;;;;;;;;;;5093951;28;20471;-73
2024/01/16 01:44:41;;;;;;;0.10;0.10;;;;;;;;;;5094175;28;20111;-74
2024/01/16 01:47:07;;;;;;;0.20;0.20;;;;;;;;;;5093817;28;20027;-73
2024/01/16 01:49:32;;;;;;;0.10;0.10;;;;;;;;;;5093615;28;20372;-73
2024/01/16 01:51:58;;;;;;;0.20;0.20;;;;;;;;;;5093365;28;20040;-73
2024/01/16 01:54:24;;;;;;;0.10;0.10;;;;;;;;;;5093258;28;20031;-73
2024/01/16 01:56:50;;;;;;;0.10;0.10;;;;;;;;;;5092010;28;20473;-73
2024/01/16 01:59:19;;;;;;;0.20;0.20;;;;;;;;;;5093362;28;20039;-73
2024/01/16 02:01:46;;;;;;;0.20;0.20;;;;;;;;;;5092298;28;20028;-73
2024/01/16 02:04:14;;;;;;;0.17;0.17;;;;;;;;;;5093423;28;20077;-73
2024/01/16 02:06:41;;;;;;;0.20;0.20;;;;;;;;;;5096858;28;20034;-73
2024/01/16 02:09:06;;;;;;;0.10;0.10;;;;;;;;;;5096405;28;20039;-73
2024/01/16 02:11:32;;;;;;;0.20;0.20;;;;;;;;;;5098223;28;20024;-73
2024/01/16 02:13:58;;;;;;;0.10;0.10;;;;;;;;;;5097331;28;20589;-73
2024/01/16 02:16:24;;;;;;;0.10;0.10;;;;;;;;;;5096152;28;20024;-73
2024/01/16 02:18:51;;;;;;;0.73;0.73;;;;;;;;;;5095714;28;20028;-74
2024/01/16 02:21:24;;;;;;;0.20;0.20;;;;;;;;;;5096638;28;20050;-72
2024/01/16 02:23:53;;;;;;;0.10;0.10;;;;;;;;;;5096208;28;20027;-72
2024/01/16 02:26:19;;;;;;;0.28;0.28;;;;;;;;;;5096533;28;20031;-74
2024/01/16 02:28:45;;;;;;;0.10;0.10;;;;;;;;;;5096336;28;20042;-74
2024/01/16 02:31:10;;;;;;;0.10;0.10;;;;;;;;;;5096622;28;20020;-72
2024/01/16 02:33:36;;;;;;;3.40;2.15;;;;;;;;;;5096276;28;20110;-72
2024/01/16 02:36:02;;;;;;;0.30;0.30;;;;;;;;;;5096442;28;20036;-72
2024/01/16 02:38:27;;;;;;;0.40;0.40;;;;;;;;;;5096466;28;20028;-72
2024/01/16 02:40:53;;;;;;;6.43;6.13;;;;;;;;;;5096083;28;20047;-73
2024/01/16 02:43:18;;;;;;;0.10;0.10;;;;;;;;;;5096396;28;20031;-72
2024/01/16 02:45:44;;;;;;;0.10;0.10;;;;;;;;;;5096100;28;20463;-72
2024/01/16 02:48:09;;;;;;;0.10;0.10;;;;;;;;;;5096058;28;20024;-73
2024/01/16 02:50:35;;;;;;;0.10;0.10;;;;;;;;;;5095135;28;20044;-72
2024/01/16 02:53:01;;;;;;;0.70;0.70;;;;;;;;;;5096248;28;20027;-73
2024/01/16 02:55:26;;;;;;;0.10;0.10;;;;;;;;;;5096117;28;20421;-72
2024/01/16 02:57:52;;;;;;;0.10;0.10;;;;;;;;;;5095870;28;20451;-72
2024/01/16 03:00:17;;;;;;;0.10;0.10;;;;;;;;;;5095751;28;20081;-73
2024/01/16 03:02:46;;;;;;;0.10;0.10;;;;;;;;;;5095787;28;20355;-73
2024/01/16 03:05:12;;;;;;;0.20;0.20;;;;;;;;;;5094733;28;20020;-70
2024/01/16 03:07:37;;;;;;;0.10;0.10;;;;;;;;;;5096199;28;20238;-71
2024/01/16 03:10:03;;;;;;;0.10;0.10;;;;;;;;;;5095615;28;20023;-72
2024/01/16 03:12:29;;;;;;;0.15;0.15;;;;;;;;;;5096063;28;20032;-72
2024/01/16 03:14:54;;;;;;;0.20;0.20;;;;;;;;;;5095527;28;20028;-71
2024/01/16 03:17:20;;;;;;;0.20;0.20;;;;;;;;;;5095228;28;20039;-72
2024/01/16 03:19:46;;;;;;;0.10;0.10;;;;;;;;;;5096562;28;20051;-72
2024/01/16 03:22:12;;;;;;;0.20;0.20;;;;;;;;;;5095922;28;20020;-73
2024/01/16 03:24:38;;;;;;;0.15;0.15;;;;;;;;;;5093954;28;20435;-73
2024/01/16 03:27:04;;;;;;;0.13;0.13;;;;;;;;;;5095584;28;20032;-73
2024/01/16 03:29:30;;;;;;;2.95;2.80;;;;;;;;;;5094107;28;20026;-73
2024/01/16 03:31:55;;;;;;;0.10;0.10;;;;;;;;;;5095413;28;20375;-72
2024/01/16 03:34:21;;;;;;;0.10;0.10;;;;;;;;;;5095360;28;20023;-74
2024/01/16 03:36:47;;;;;;;0.10;0.10;;;;;;;;;;5095521;28;20036;-74
2024/01/16 03:39:12;;;;;;;0.10;0.10;;;;;;;;;;5095567;28;20024;-73
2024/01/16 03:41:38;;;;;;;0.15;0.15;;;;;;;;;;5094109;28;20060;-74
2024/01/16 03:44:04;;;;;;;0.10;0.10;;;;;;;;;;5095248;28;20106;-73
2024/01/16 03:46:30;;;;;;;0.10;0.10;;;;;;;;;;5094015;28;20024;-73
2024/01/16 03:48:56;;;;;;;1.00;0.95;;;;;;;;;;5093974;28;20030;-73
2024/01/16 03:51:21;;;;;;;0.10;0.10;;;;;;;;;;5076508;28;20044;-73
2024/01/16 03:53:48;;;;;;;0.13;0.13;;;;;;;;;;5094767;28;20063;-73
2024/01/16 03:56:15;;;;;;;0.25;0.25;;;;;;;;;;5076892;28;20032;-73
2024/01/16 03:58:43;;;;;;;0.10;0.10;;;;;;;;;;5094664;28;20443;-74
2024/01/16 04:01:09;;;;;;;0.20;0.20;;;;;;;;;;5076948;28;20032;-75
2024/01/16 04:03:35;;;;;;;6.20;1.23;;;;;;;;;;5095741;28;20027;-73
2024/01/16 04:06:00;;;;;;;0.20;0.20;;;;;;;;;;5094592;28;20027;-72
2024/01/16 04:08:26;;;;;;;0.20;0.20;;;;;;;;;;5094756;28;20107;-73
2024/01/16 04:10:52;;;;;;;0.15;0.15;;;;;;;;;;5094810;28;20062;-72
2024/01/16 04:13:17;;;;;;;0.10;0.10;;;;;;;;;;5095694;28;20020;-74
2024/01/16 04:15:43;;;;;;;0.10;0.10;;;;;;;;;;5095390;28;20031;-73
2024/01/16 04:18:09;;;;;;;0.10;0.10;;;;;;;;;;5093446;28;20024;-72
2024/01/16 04:20:34;;;;;;;0.20;0.20;;;;;;;;;;5076477;28;20035;-74
2024/01/16 04:23:00;;;;;;;0.20;0.20;;;;;;;;;;5094232;28;20070;-74
2024/01/16 04:25:26;;;;;;;0.10;0.10;;;;;;;;;;5076362;28;20020;-72
2024/01/16 04:27:58;;;;;;;0.10;0.10;;;;;;;;;;5092826;28;20069;-73
2024/01/16 04:30:23;;;;;;;0.10;0.10;;;;;;;;;;5094677;28;20028;-73
2024/01/16 04:32:49;;;;;;;0.10;0.10;;;;;;;;;;5094114;28;20024;-73
2024/01/16 04:35:15;;;;;;;0.10;0.10;;;;;;;;;;5093195;28;20016;-73
2024/01/16 04:37:40;;;;;;;0.20;0.20;;;;;;;;;;5093943;28;20532;-74
2024/01/16 04:40:06;;;;;;;0.10;0.10;;;;;;;;;;5093860;28;20020;-72
2024/01/16 04:42:32;;;;;;;0.10;0.10;;;;;;;;;;5093805;28;20012;-73
2024/01/16 04:44:58;;;;;;;0.10;0.10;;;;;;;;;;5094214;28;20072;-72
2024/01/16 04:47:24;;;;;;;0.10;0.10;;;;;;;;;;5094097;28;20020;-73
2024/01/16 04:49:49;;;;;;;0.20;0.20;;;;;;;;;;5094487;28;20439;-75
2024/01/16 04:52:15;;;;;;;0.10;0.10;;;;;;;;;;5076052;28;20031;-72
2024/01/16 04:54:41;;;;;;;0.20;0.20;;;;;;;;;;5075972;28;20455;-73
2024/01/16 04:57:07;;;;;;;0.10;0.10;;;;;;;;;;5093525;28;20039;-72
2024/01/16 04:59:33;;;;;;;0.10;0.10;;;;;;;;;;5075150;28;20400;-74
2024/01/16 05:01:58;;;;;;;0.20;0.20;;;;;;;;;;5092432;28;20035;-74
2024/01/16 05:04:24;;;;;;;0.10;0.10;;;;;;;;;;5093703;28;20058;-74
2024/01/16 05:06:51;;;;;;;0.10;0.10;;;;;;;;;;5093706;28;20023;-74
2024/01/16 05:09:16;;;;;;;0.15;0.15;;;;;;;;;;5092263;28;20020;-73
2024/01/16 05:11:42;;;;;;;0.10;0.10;;;;;;;;;;5092700;28;20348;-74
2024/01/16 05:14:07;;;;;;;0.10;0.10;;;;;;;;;;5093616;28;20012;-74
2024/01/16 05:16:33;;;;;;;0.13;0.13;;;;;;;;;;5092858;28;20028;-73
2024/01/16 05:18:59;;;;;;;0.10;0.10;;;;;;;;;;5092939;28;20020;-73
2024/01/16 05:21:24;;;;;;;0.10;0.10;;;;;;;;;;5093834;28;20067;-72
2024/01/16 05:23:50;;;;;;;0.10;0.10;;;;;;;;;;5093748;28;20460;-72
2024/01/16 05:26:16;;;;;;;0.20;0.20;;;;;;;;;;5093429;28;20065;-73
2024/01/16 05:28:42;;;;;;;0.10;0.10;;;;;;;;;;5094067;28;20044;-71
2024/01/16 05:31:08;;;;;;;0.10;0.10;;;;;;;;;;5092482;28;20032;-71
2024/01/16 05:33:33;;;;;;;0.10;0.10;;;;;;;;;;5093704;28;20355;-73
2024/01/16 05:35:59;;;;;;;0.10;0.10;;;;;;;;;;5093130;28;20067;-72
2024/01/16 05:38:25;;;;;;;0.20;0.20;;;;;;;;;;5075465;28;20455;-73
2024/01/16 05:40:51;;;;;;;0.20;0.20;;;;;;;;;;5093380;28;20419;-75
2024/01/16 05:43:17;;;;;;;0.10;0.10;;;;;;;;;;5096023;28;20016;-72
2024/01/16 05:45:43;;;;;;;0.10;0.10;;;;;;;;;;5096254;28;20091;-72
2024/01/16 05:48:09;;;;;;;0.20;0.20;;;;;;;;;;5096065;28;20078;-74
2024/01/16 05:50:36;;;;;;;0.10;0.10;;;;;;;;;;5097445;28;20042;-74
2024/01/16 05:53:02;;;;;;;0.10;0.10;;;;;;;;;;5095860;28;20024;-73
2024/01/16 05:55:28;;;;;;;0.10;0.10;;;;;;;;;;5096381;28;20015;-72
2024/01/16 05:57:54;;;;;;;0.10;0.10;;;;;;;;;;5097557;28;20050;-72
2024/01/16 06:00:22;;;;;;;0.10;0.10;;;;;;;;;;5096802;28;20027;-72
2024/01/16 06:02:48;;;;;;;0.10;0.10;;;;;;;;;;5095959;28;20031;-72
2024/01/16 06:05:14;;;;;;;0.10;0.10;;;;;;;;;;5096999;28;20016;-71
2024/01/16 06:07:40;;;;;;;0.20;0.20;;;;;;;;;;5095703;28;20024;-73
2024/01/16 06:10:06;;;;;;;0.20;0.20;;;;;;;;;;5096184;28;20107;-76
2024/01/16 06:12:32;;;;;;;0.10;0.10;;;;;;;;;;5094396;28;20020;-73
2024/01/16 06:14:58;;;;;;;0.10;0.10;;;;;;;;;;5095996;28;20078;-74
2024/01/16 06:17:23;;;;;;;0.10;0.10;;;;;;;;;;5095149;28;20035;-73
2024/01/16 06:19:49;;;;;;;0.10;0.10;;;;;;;;;;5096070;28;20020;-73
2024/01/16 06:22:15;;;;;;;0.10;0.10;;;;;;;;;;5094589;28;20020;-73
2024/01/16 06:24:40;;;;;;;0.10;0.10;;;;;;;;;;5093954;28;20028;-73
2024/01/16 06:27:06;;;;;;;0.20;0.20;;;;;;;;;;5095573;28;20020;-72
2024/01/16 06:29:32;;;;;;;0.10;0.10;;;;;;;;;;5094760;28;20020;-72
2024/01/16 06:31:58;;;;;;;0.57;0.57;;;;;;;;;;5094395;28;20118;-72
2024/01/16 06:34:24;;;;;;;0.15;0.15;;;;;;;;;;5096157;28;20016;-74
2024/01/16 06:36:49;;;;;;;0.10;0.10;;;;;;;;;;5092364;28;20074;-73
2024/01/16 06:39:15;;;;;;;0.10;0.10;;;;;;;;;;5089900;28;20085;-72
2024/01/16 06:41:41;;;;;;;0.20;0.20;;;;;;;;;;5092702;28;20066;-73
2024/01/16 06:44:06;;;;;;;0.20;0.20;;;;;;;;;;5094565;28;20101;-72
2024/01/16 06:46:32;;;;;;;0.20;0.20;;;;;;;;;;5094858;28;20059;-72
2024/01/16 06:48:58;;;;;;;0.13;0.13;;;;;;;;;;5077200;28;20017;-74
2024/01/16 06:51:23;;;;;;;0.10;0.10;;;;;;;;;;5094576;28;20050;-74
2024/01/16 06:53:49;;;;;;;0.15;0.15;;;;;;;;;;5094417;28;20313;-73
2024/01/16 06:56:14;;;;;;;0.10;0.10;;;;;;;;;;5095718;28;20054;-74
2024/01/16 06:58:40;;;;;;;0.17;0.17;;;;;;;;;;5094252;28;20473;-74
2024/01/16 07:01:07;;;;;;;0.10;0.10;;;;;;;;;;5094713;28;20487;-73
2024/01/16 07:03:34;;;;;;;0.10;0.10;;;;;;;;;;5094742;28;20024;-74
2024/01/16 07:06:00;;;;;;;0.10;0.10;;;;;;;;;;5095017;28;20023;-74
2024/01/16 07:08:26;;;;;;;0.10;0.10;;;;;;;;;;5077104;28;20024;-72
2024/01/16 07:10:51;;;;;;;0.10;0.10;;;;;;;;;;5093074;28;20371;-73
2024/01/16 07:13:17;;;;;;;0.20;0.20;;;;;;;;;;5094387;28;20427;-73
2024/01/16 07:15:43;;;;;;;0.10;0.10;;;;;;;;;;5083178;28;20184;-73
2024/01/16 07:18:08;;;;;;;0.10;0.10;;;;;;;;;;5093151;28;20024;-74
2024/01/16 07:20:34;;;;;;;0.10;0.10;;;;;;;;;;5089816;28;20351;-74
2024/01/16 07:22:59;;;;;;;0.10;0.10;;;;;;;;;;5091918;28;20475;-72
2024/01/16 07:25:25;;;;;;;0.10;0.10;;;;;;;;;;5092800;28;20024;-72
2024/01/16 07:27:51;;;;;;;0.10;0.10;;;;;;;;;;5092718;28;20461;-71
2024/01/16 07:30:17;;;;;;;0.10;0.10;;;;;;;;;;5078852;28;20102;-72
2024/01/16 07:32:43;;;;;;;0.20;0.20;;;;;;;;;;5093710;28;20020;-75
2024/01/16 07:35:08;;;;;;;0.10;0.10;;;;;;;;;;5092714;28;20419;-75
2024/01/16 07:37:34;;;;;;;0.10;0.10;;;;;;;;;;5085446;28;20034;-75
2024/01/16 07:39:59;;;;;;;0.10;0.10;;;;;;;;;;5092447;28;20024;-75
2024/01/16 07:42:26;;;;;;;0.10;0.10;;;;;;;;;;5094323;28;20016;-75
2024/01/16 07:44:52;;;;;;;0.10;0.10;;;;;;;;;;5091947;28;20020;-75
2024/01/16 07:47:18;;;;;;;0.10;0.10;;;;;;;;;;5093345;28;20024;-75
2024/01/16 07:49:43;;;;;;;2.00;1.90;;;;;;;;;;5093242;28;20104;-75
2024/01/16 07:52:09;;;;;;;0.10;0.10;;;;;;;;;;5093446;28;20079;-75
2024/01/16 07:54:35;;;;;;;0.22;0.22;;;;;;;;;;5093146;28;20016;-75
2024/01/16 07:57:02;;;;;;;0.20;0.20;;;;;;;;;;5092173;28;20161;-75
2024/01/16 07:59:28;;;;;;;0.20;0.20;;;;;;;;;;5093057;28;20386;-74
2024/01/16 08:01:54;;;;;;;0.10;0.10;;;;;;;;;;5092084;28;20345;-75
2024/01/16 08:04:19;;;;;;;0.10;0.10;;;;;;;;;;5091236;28;20458;-74
2024/01/16 08:06:46;;;;;;;0.10;0.10;;;;;;;;;;5092817;28;20052;-75
2024/01/16 08:09:12;;;;;;;0.10;0.10;;;;;;;;;;5094233;28;20027;-75
2024/01/16 08:11:39;;;;;;;0.10;0.10;;;;;;;;;;5093002;28;20056;-75
2024/01/16 08:14:05;;;;;;;0.10;0.10;;;;;;;;;;5092053;28;20028;-74
2024/01/16 08:16:30;;;;;;;0.10;0.10;;;;;;;;;;5075735;28;20048;-74
2024/01/16 08:18:56;;;;;;;0.10;0.10;;;;;;;;;;5089305;28;20440;-79
2024/01/16 08:21:22;;;;;;;0.10;0.10;;;;;;;;;;5093636;28;20050;-74
2024/01/16 08:23:47;;;;;;;1.05;1.05;;;;;;;;;;5091470;28;20020;-74
2024/01/16 08:26:13;;;;;;;0.10;0.10;;;;;;;;;;5092810;28;20056;-74
2024/01/16 08:28:38;;;;;;;0.10;0.10;;;;;;;;;;5092885;28;20020;-74
2024/01/16 08:31:04;;;;;;;0.10;0.10;;;;;;;;;;5090005;28;20020;-74
2024/01/16 08:33:30;;;;;;;0.10;0.10;;;;;;;;;;5079411;28;20061;-74
2024/01/16 08:35:55;;;;;;;0.10;0.10;;;;;;;;;;5080518;28;20096;-74
2024/01/16 08:38:21;;;;;;;0.20;0.20;;;;;;;;;;5093309;28;20023;-74
2024/01/16 08:40:47;;;;;;;0.10;0.10;;;;;;;;;;5092867;28;20032;-73
2024/01/16 08:43:12;;;;;;;0.10;0.10;;;;;;;;;;5090046;28;20062;-74
2024/01/16 08:45:38;;;;;;;0.10;0.10;;;;;;;;;;5077494;28;20000;-75
2024/01/16 08:48:04;;;;;;;0.63;0.63;;;;;;;;;;5092424;28;20565;-74
2024/01/16 08:50:29;;;;;;;6.03;2.05;;;;;;;;;;5092261;28;20044;-75
2024/01/16 08:52:55;;;;;;;0.45;0.45;;;;;;;;;;5092731;28;20032;-74
2024/01/16 08:55:21;;;;;;;0.10;0.10;;;;;;;;;;5093070;28;20034;-75
2024/01/16 08:57:46;;;;;;;0.10;0.10;;;;;;;;;;5084117;28;20035;-74
2024/01/16 09:00:12;;;;;;;0.10;0.10;;;;;;;;;;5092868;28;20103;-74
2024/01/16 09:02:37;;;;;;;0.28;0.28;;;;;;;;;;5092308;28;20205;-74
2024/01/16 09:05:04;;;;;;;0.20;0.20;;;;;;;;;;5091834;28;20527;-74
2024/01/16 09:07:30;;;;;;;0.20;0.20;;;;;;;;;;5092498;28;20024;-75
2024/01/16 09:09:56;;;;;;;0.63;0.63;;;;;;;;;;5092327;28;20127;-81
2024/01/16 09:12:21;;;;;;;0.15;0.15;;;;;;;;;;5091566;28;20023;-74
2024/01/16 09:14:47;;;;;;;1.25;0.40;;;;;;;;;;5094672;28;20467;-74
2024/01/16 09:17:13;;;;;;;1.27;0.60;;;;;;;;;;5096478;28;20028;-74
2024/01/16 09:19:38;;;;;;;1.30;0.40;;;;;;;;;;5095705;28;20165;-75
2024/01/16 09:22:04;;;;;;;0.20;0.20;;;;;;;;;;5096986;28;20474;-74
2024/01/16 09:24:30;;;;;;;0.20;0.20;;;;;;;;;;5095483;28;20034;-75
2024/01/16 09:26:56;;;;;;;0.22;0.15;;;;;;;;;;5095400;28;20023;-74
2024/01/16 09:29:22;;;;;;;0.10;0.10;;;;;;;;;;5097435;28;20023;-74
2024/01/16 09:31:47;;;;;;;0.32;0.32;;;;;;;;;;5095570;28;20027;-74
2024/01/16 09:34:13;;;;;;;1.17;0.43;;;;;;;;;;5095189;28;20031;-74
2024/01/16 09:36:39;;;;;;;0.10;0.10;;;;;;;;;;5096283;28;20032;-73
2024/01/16 09:39:10;;;;;;;0.32;0.32;;;;;;;;;;5077721;28;20028;-75
2024/01/16 09:41:36;;;;;;;0.10;0.10;;;;;;;;;;5095164;28;20094;-74
2024/01/16 09:44:02;;;;;;;0.10;0.10;;;;;;;;;;5095627;28;20055;-75
2024/01/16 09:46:30;;;;;;;0.20;0.20;;;;;;;;;;5095049;28;20019;-74
2024/01/16 09:48:56;;;;;;;0.20;0.20;;;;;;;;;;5094785;28;20055;-80
2024/01/16 09:51:22;;;;;;;0.15;0.15;;;;;;;;;;5094718;28;20044;-75
2024/01/16 09:53:48;;;;;;;0.15;0.15;;;;;;;;;;5094775;28;20012;-74
2024/01/16 09:56:15;;;;;;;3.60;1.65;;;;;;;;;;5095374;28;20055;-75
2024/01/16 09:58:40;;;;;;;0.10;0.10;;;;;;;;;;5095236;28;20094;-74
2024/01/16 10:01:06;;;;;;;0.40;0.40;;;;;;;;;;5095554;28;20398;-73
2024/01/16 10:03:34;;;;;;;0.13;0.13;;;;;;;;;;5095987;28;20023;-75
2024/01/16 10:06:03;;;;;;;2.22;2.13;;;;;;;;;;5096085;28;20055;-75
2024/01/16 10:08:30;;;;;;;0.47;0.28;;;;;;;;;;5095887;28;20489;-74
2024/01/16 10:10:55;;;;;;;0.20;0.20;;;;;;;;;;5095562;28;20084;-74
2024/01/16 10:13:21;;;;;;;0.17;0.17;;;;;;;;;;5096755;28;20091;-74
2024/01/16 10:15:49;;;;;;;0.20;0.20;;;;;;;;;;5095951;28;20042;-74
2024/01/16 10:18:37;;;;;;;0.20;0.20;;;;;;;;;;5096622;28;20024;-74
2024/01/16 10:21:03;;;;;;;0.30;0.30;;;;;;;;;;5096688;28;20028;-74
2024/01/16 10:23:29;;;;;;;0.28;0.28;;;;;;;;;;5096539;28;20358;-74
2024/01/16 10:26:11;;;;;;;0.28;0.28;;;;;;;;;;5077661;28;20126;-75
2024/01/16 10:28:41;;;;;;;0.20;0.20;;;;;;;;;;5096637;28;20032;-73
2024/01/16 10:31:07;;;;;;;0.40;0.40;;;;;;;;;;5096955;28;20024;-74
2024/01/16 10:33:33;;;;;;;4.20;0.68;;;;;;;;;;5095773;28;20133;-74
2024/01/16 10:36:10;;;;;;;0.75;0.75;;;;;;;;;;5078122;28;20405;-75
2024/01/16 10:38:38;;;;;;;0.47;0.47;;;;;;;;;;5095206;28;20031;-74
2024/01/16 10:41:06;;;;;;;5.95;1.42;;;;;;;;;;5096268;28;20024;-74
2024/01/16 10:43:32;;;;;;;1.90;0.87;;;;;;;;;;5090828;28;20100;-74
2024/01/16 10:46:08;;;;;;;0.25;0.25;;;;;;;;;;5075274;28;20422;-75
2024/01/16 10:48:34;;;;;;;0.40;0.40;;;;;;;;;;5074804;28;20352;-74
2024/01/16 10:51:01;;;;;;;0.95;0.50;;;;;;;;;;5075779;28;20041;-73
2024/01/16 10:53:28;;;;;;;0.20;0.20;;;;;;;;;;5074576;28;20031;-75
2024/01/16 10:55:57;;;;;;;8.77;1.83;;;;;;;;;;5075887;28;20028;-74
2024/01/16 10:58:23;;;;;;;12.55;6.10;;;;;;;;;;5074935;28;20031;-74
2024/01/16 11:00:51;;;;;;;0.20;0.20;;;;;;;;;;5090399;28;20020;-74
2024/01/16 11:03:40;;;;;;;10.10;1.92;;;;;;;;;;5095094;28;20032;-74
2024/01/16 11:06:07;;;;;;;1.92;0.63;;;;;;;;;;5095022;28;20509;-73
2024/01/16 11:08:35;;;;;;;4.85;1.48;;;;;;;;;;5094763;28;20058;-74
2024/01/16 11:11:03;;;;;;;0.20;0.20;;;;;;;;;;5094736;28;20012;-74
2024/01/16 11:13:30;;;;;;;2.00;0.82;;;;;;;;;;5087543;28;20078;-73
2024/01/16 11:15:57;;;;;;;7.97;2.10;;;;;;;;;;5075206;28;20036;-74
2024/01/16 11:18:24;;;;;;;0.28;0.28;;;;;;;;;;5074140;28;20029;-73
2024/01/16 11:20:51;;;;;;;0.20;0.20;;;;;;;;;;5074976;28;20020;-75
2024/01/16 11:23:17;;;;;;;0.65;0.65;;;;;;;;;;5075065;28;20099;-73
2024/01/16 11:25:42;;;;;;;0.20;0.20;;;;;;;;;;5075981;28;20059;-74
2024/01/16 11:28:13;;;;;;;0.20;0.20;;;;;;;;;;5084664;28;20115;-73
2024/01/16 11:30:39;;;;;;;5.60;1.30;;;;;;;;;;5095154;28;20436;-73
2024/01/16 11:33:05;;;;;;;0.32;0.32;;;;;;;;;;5086098;28;20439;-74
2024/01/16 11:35:34;;;;;;;0.17;0.17;;;;;;;;;;5076197;28;20056;-73
2024/01/16 11:38:04;;;;;;;0.20;0.20;;;;;;;;;;5075012;28;20020;-75
2024/01/16 11:40:32;;;;;;;0.20;0.20;;;;;;;;;;5094438;28;20099;-74
2024/01/16 11:42:57;;;;;;;1.85;1.75;;;;;;;;;;5094993;28;20020;-74
2024/01/16 11:45:29;;;;;;;3.95;1.13;;;;;;;;;;5094578;28;20459;-73
2024/01/16 11:48:14;;;;;;;8.57;1.58;;;;;;;;;;5094928;28;20032;-74
2024/01/16 11:50:40;;;;;;;1.88;0.52;;;;;;;;;;5094578;28;20036;-74
2024/01/16 11:53:05;;;;;;;0.88;0.85;;;;;;;;;;5094436;28;20142;-75
2024/01/16 11:55:32;;;;;;;9.27;1.48;;;;;;;;;;5094135;28;20077;-74
2024/01/16 11:58:16;;;;;;;0.10;0.10;;;;;;;;;;5095137;28;20024;-74
2024/01/16 12:00:45;;;;;;;13.82;1.13;;;;;;;;;;5093338;28;20031;-74
2024/01/16 12:03:11;;;;;;;;;;;;;;;;;;5093443;28;20031;-74
2024/01/16 12:05:38;;;;;;;0.20;0.20;;;;;;;;;;5093707;28;19930;-73
2024/01/16 12:08:06;;;;;;;11.00;2.25;;;;;;;;;;5074058;28;20020;-75
2024/01/16 12:10:32;;;;;;;8.75;1.88;;;;;;;;;;5073349;28;20033;-75
2024/01/16 12:12:58;;;;;;;13.35;2.90;;;;;;;;;;5073891;28;20024;-74
2024/01/16 12:15:24;;;;;;;8.30;2.13;;;;;;;;;;5074010;28;20344;-74
2024/01/16 12:17:59;;;;;;;0.55;0.43;;;;;;;;;;5072982;28;20036;-74
2024/01/16 12:20:29;;;;;;;1.38;1.33;;;;;;;;;;5073148;28;20028;-75
2024/01/16 12:22:59;;;;;;;1.75;0.77;;;;;;;;;;5073512;28;20017;-75
2024/01/16 12:25:30;;;;;;;2.10;0.68;;;;;;;;;;5072052;28;20035;-75
2024/01/16 12:27:56;;;;;;;1.38;0.57;;;;;;;;;;5073883;28;20336;-75
2024/01/16 12:30:23;;;;;;;2.20;1.17;;;;;;;;;;5073889;28;20113;-75
2024/01/16 12:32:49;;;;;;;0.60;0.40;;;;;;;;;;5073553;28;20100;-75
2024/01/16 12:35:21;;;;;;;0.20;0.20;;;;;;;;;;5073102;28;20125;-75
2024/01/16 12:38:03;;;;;;;2.05;0.98;;;;;;;;;;5073771;28;20113;-75
2024/01/16 12:40:29;;;;;;;2.03;0.68;;;;;;;;;;5072697;28;20376;-75
2024/01/16 12:42:55;;;;;;;0.20;0.20;;;;;;;;;;5073745;28;20023;-74
2024/01/16 12:45:22;;;;;;;0.28;0.28;;;;;;;;;;5074105;28;20033;-75
2024/01/16 12:47:52;;;;;;;2.78;0.95;;;;;;;;;;5073639;28;20035;-74
2024/01/16 12:50:22;;;;;;;7.22;3.13;;;;;;;;;;5075025;28;20071;-74
2024/01/16 12:52:49;;;;;;;3.85;0.77;;;;;;;;;;5094444;28;20019;-74
2024/01/16 12:55:15;;;;;;;5.25;0.75;;;;;;;;;;5092481;28;20024;-74
2024/01/16 12:57:42;;;;;;;1.30;0.50;;;;;;;;;;5093411;28;20027;-75
2024/01/16 13:00:24;;;;;;;0.25;0.25;;;;;;;;;;5093412;28;20020;-74
2024/01/16 13:02:50;;;;;;;2.58;1.33;;;;;;;;;;5094140;28;20456;-74
2024/01/16 13:05:17;;;;;;;4.57;1.00;;;;;;;;;;5092346;28;20040;-75
2024/01/16 13:07:43;;;;;;;8.85;1.67;;;;;;;;;;5093652;28;20020;-76
2024/01/16 13:10:09;;;;;;;0.25;0.25;;;;;;;;;;5093792;28;20020;-75
2024/01/16 13:12:36;;;;;;;3.20;0.88;;;;;;;;;;5092073;28;20020;-74
2024/01/16 13:15:05;;;;;;;1.75;0.40;;;;;;;;;;5092421;28;20032;-74
2024/01/16 13:17:32;;;;;;;1.77;0.60;;;;;;;;;;5089359;28;21031;-74
2024/01/16 13:19:57;;;;;;;4.20;1.17;;;;;;;;;;5093719;28;20032;-74
2024/01/16 13:22:23;;;;;;;1.95;0.60;;;;;;;;;;5094363;28;20038;-75
2024/01/16 13:24:49;;;;;;;0.57;0.50;;;;;;;;;;5093016;28;20439;-75
2024/01/16 13:27:14;;;;;;;1.83;0.68;;;;;;;;;;5092578;28;20108;-74
2024/01/16 13:29:40;;;;;;;0.20;0.20;;;;;;;;;;5093403;28;20144;-75
2024/01/16 13:32:06;;;;;;;0.20;0.20;;;;;;;;;;5093443;28;20024;-72
2024/01/16 13:34:31;;;;;;;0.35;0.25;;;;;;;;;;5092606;28;20131;-72
2024/01/16 13:36:59;;;;;;;5.15;2.13;;;;;;;;;;5073841;28;20067;-75
2024/01/16 13:39:25;;;;;;;3.50;2.15;;;;;;;;;;5073147;28;20028;-73
2024/01/16 13:41:51;;;;;;;3.92;1.20;;;;;;;;;;5073696;28;20448;-74
2024/01/16 13:44:17;;;;;;;4.68;1.13;;;;;;;;;;5073387;28;20052;-73
2024/01/16 13:46:42;;;;;;;0.40;0.40;;;;;;;;;;5072991;28;20027;-74
2024/01/16 13:49:08;;;;;;;7.25;1.25;;;;;;;;;;5072055;28;20029;-74
2024/01/16 13:51:34;;;;;;;5.45;1.45;;;;;;;;;;5072627;28;20051;-74
2024/01/16 13:53:59;;;;;;;1.00;0.50;;;;;;;;;;5072705;28;20085;-73
2024/01/16 13:56:25;;;;;;;2.42;0.65;;;;;;;;;;5071784;28;20472;-75
2024/01/16 13:58:50;;;;;;;0.60;0.40;;;;;;;;;;5072590;28;20020;-75
2024/01/16 14:01:16;;;;;;;3.13;0.63;;;;;;;;;;5072866;28;20039;-76
2024/01/16 14:03:43;;;;;;;1.85;0.82;;;;;;;;;;5076872;28;20031;-75
2024/01/16 14:06:09;;;;;;;0.38;0.38;;;;;;;;;;5076623;28;20059;-75
2024/01/16 14:08:35;;;;;;;0.30;0.30;;;;;;;;;;5076552;28;20035;-75
2024/01/16 14:11:01;;;;;;;0.20;0.20;;;;;;;;;;5076778;28;20025;-75
2024/01/16 14:13:26;;;;;;;1.48;0.93;;;;;;;;;;5075307;28;20020;-75
2024/01/16 14:15:52;;;;;;;1.48;0.95;;;;;;;;;;5076518;28;20031;-75
2024/01/16 14:18:18;;;;;;;5.32;0.63;;;;;;;;;;5077065;28;20424;-74
2024/01/16 14:20:45;;;;;;;0.43;0.43;;;;;;;;;;5075052;28;20074;-75
2024/01/16 14:23:10;;;;;;;2.75;0.90;;;;;;;;;;5076353;28;20028;-74
2024/01/16 14:25:36;;;;;;;0.20;0.20;;;;;;;;;;5077159;28;20025;-75
2024/01/16 14:28:05;;;;;;;0.65;0.47;;;;;;;;;;5076772;28;20025;-74
2024/01/16 14:30:34;;;;;;;5.05;1.48;;;;;;;;;;5076231;28;20016;-74
2024/01/16 14:33:01;;;;;;;6.55;1.85;;;;;;;;;;5076685;28;20028;-74
2024/01/16 14:35:26;;;;;;;5.82;1.05;;;;;;;;;;5075071;28;20012;-74
2024/01/16 14:37:52;;;;;;;0.68;0.52;;;;;;;;;;5075538;28;20033;-75